Time;durP1;ratioP1;P1;durP2;ratioP2;P2;SDS_P1;SDS_P2;PMS_P1;PMS_P2;Temp;Humidity;BMP_temperature;BMP_pressure;BME280_temperature;BME280_humidity;BME280_pressure;Samples;Min_cycle;Max_cycle;Signal;HPM_P1;HPM_P2
2023/05/02 00:00:28;;;;;;;34.40;17.85;;;;;;;10.32;92.72;102046.19;6102744;23;20019;-83
2023/05/02 00:02:54;;;;;;;32.45;18.35;;;;;;;10.32;92.92;102040.09;6100165;23;20472;-83
2023/05/02 00:05:22;;;;;;;33.00;17.95;;;;;;;10.32;92.76;102040.84;6100199;23;20046;-83
2023/05/02 00:07:50;;;;;;;30.48;17.38;;;;;;;10.33;93.15;102045.03;6099757;23;20018;-84
2023/05/02 00:10:17;;;;;;;31.25;17.95;;;;;;;10.32;93.11;102040.84;6099806;23;20342;-84
2023/05/02 00:12:43;;;;;;;28.70;17.38;;;;;;;10.33;93.50;102038.94;6099981;23;20014;-84
2023/05/02 00:15:10;;;;;;;27.90;15.40;;;;;;;10.33;92.97;102046.94;6099107;23;20046;-84
2023/05/02 00:17:40;;;;;;;34.63;17.35;;;;;;;10.33;93.18;102046.94;6074876;23;20472;-83
2023/05/02 00:20:11;;;;;;;29.40;15.07;;;;;;;10.30;92.81;102043.16;6073564;23;20178;-83
2023/05/02 00:22:38;;;;;;;24.85;15.55;;;;;;;10.29;92.99;102039.00;6100432;23;20015;-83
2023/05/02 00:25:05;;;;;;;22.23;14.68;;;;;;;10.30;93.10;102042.41;6099291;23;20018;-83
2023/05/02 00:27:32;;;;;;;29.58;15.27;;;;;;;10.31;93.21;102047.34;6099609;23;20023;-83
2023/05/02 00:29:59;;;;;;;27.08;14.52;;;;;;;10.33;92.92;102041.59;6099482;23;20019;-84
2023/05/02 00:32:27;;;;;;;23.63;13.80;;;;;;;10.33;92.87;102047.69;6102877;23;20173;-83
2023/05/02 00:34:53;;;;;;;20.50;11.80;;;;;;;10.33;92.76;102045.03;6073872;23;20030;-84
2023/05/02 00:37:20;;;;;;;20.08;10.82;;;;;;;10.32;92.85;102046.19;6099671;23;20023;-84
2023/05/02 00:39:46;;;;;;;17.75;10.35;;;;;;;10.34;92.50;102046.53;6074154;23;20453;-83
2023/05/02 00:42:13;;;;;;;15.82;9.50;;;;;;;10.35;92.81;102050.69;6073278;23;20015;-84
2023/05/02 00:44:39;;;;;;;16.58;9.68;;;;;;;10.35;92.91;102040.03;6100217;23;20075;-84
2023/05/02 00:47:06;;;;;;;12.80;9.45;;;;;;;10.37;93.07;102050.28;6099126;23;20410;-83
2023/05/02 00:49:32;;;;;;;14.20;7.45;;;;;;;10.40;93.29;102059.38;6074111;23;20484;-84
2023/05/02 00:51:59;;;;;;;11.45;8.43;;;;;;;10.37;93.34;102052.19;6073028;23;20019;-84
2023/05/02 00:54:26;;;;;;;13.10;8.05;;;;;;;10.38;93.49;102056.38;6099609;23;20067;-84
2023/05/02 00:56:52;;;;;;;16.17;7.43;;;;;;;10.38;93.84;102069.66;6098267;23;20370;-84
2023/05/02 00:59:19;;;;;;;9.85;7.32;;;;;;;10.35;94.61;102069.31;6074121;23;20428;-84
2023/05/02 01:01:59;;;;;;;16.25;6.90;;;;;;;10.34;94.53;102062.50;6099367;23;20023;-84
2023/05/02 01:04:49;;;;;;;9.65;6.90;;;;;;;10.32;95.01;102078.13;6075985;23;20034;-83
2023/05/02 01:07:33;;;;;;;10.27;7.03;;;;;;;10.30;95.47;102080.44;6100679;23;20022;-84
2023/05/02 01:10:22;;;;;;;15.35;7.15;;;;;;;10.28;95.81;102084.66;6074162;23;20023;-84
2023/05/02 01:13:10;;;;;;;7.47;5.93;;;;;;;10.28;95.61;102080.09;6073108;23;20082;-85
2023/05/02 01:15:39;;;;;;;8.52;5.60;;;;;;;10.29;95.93;102078.16;6100047;23;20034;-85
2023/05/02 01:18:09;;;;;;;8.15;4.95;;;;;;;10.29;96.18;102076.25;6073172;23;20477;-85
2023/05/02 01:20:41;;;;;;;11.57;4.63;;;;;;;10.31;95.91;102083.84;6074020;23;20453;-86
2023/05/02 01:23:30;;;;;;;5.55;3.78;;;;;;;10.24;95.38;102083.94;6099107;23;20051;-86
2023/05/02 01:26:13;;;;;;;7.78;3.70;;;;;;;10.21;95.04;102092.75;6072522;23;20019;-84
2023/05/02 01:28:52;;;;;;;5.43;2.50;;;;;;;10.16;93.62;102087.84;6099730;23;20052;-85
2023/05/02 01:31:20;;;;;;;5.20;2.40;;;;;;;10.13;93.24;102097.38;6073736;23;20011;-84
2023/05/02 01:33:48;;;;;;;3.88;2.72;;;;;;;10.10;93.09;102098.19;6051042;23;20019;-84
2023/05/02 01:36:16;;;;;;;4.32;2.40;;;;;;;10.07;92.12;102096.31;6075123;23;20475;-84
2023/05/02 01:38:44;;;;;;;3.10;2.10;;;;;;;10.04;91.90;102107.78;6105112;23;20023;-83
2023/05/02 01:41:13;;;;;;;2.42;2.20;;;;;;;10.01;91.69;102103.25;6099809;23;20098;-83
2023/05/02 01:43:41;;;;;;;3.55;2.03;;;;;;;10.00;91.92;102109.72;6100866;23;20026;-83
2023/05/02 01:46:12;;;;;;;4.85;2.40;;;;;;;10.00;90.97;102107.81;6100343;23;20050;-83
2023/05/02 01:48:43;;;;;;;3.67;2.40;;;;;;;9.96;91.41;102114.38;6100533;23;20466;-83
2023/05/02 01:51:11;;;;;;;7.85;2.88;;;;;;;9.96;91.26;102117.03;6099992;23;20107;-83
2023/05/02 01:53:39;;;;;;;7.82;2.97;;;;;;;9.93;91.42;102120.50;6100744;23;20079;-83
2023/05/02 01:56:06;;;;;;;8.35;2.72;;;;;;;9.93;91.49;102131.13;6099494;23;20073;-83
2023/05/02 01:58:34;;;;;;;6.45;2.55;;;;;;;9.91;91.32;102134.19;6074959;23;20027;-84
2023/05/02 02:01:02;;;;;;;5.72;2.70;;;;;;;9.88;91.47;102142.22;6068955;23;20038;-84
2023/05/02 02:03:31;;;;;;;6.82;2.83;;;;;;;9.85;91.77;102151.75;6072047;23;20023;-83
2023/05/02 02:05:59;;;;;;;8.82;3.05;;;;;;;9.82;90.62;102136.59;6071032;23;20023;-84
2023/05/02 02:08:26;;;;;;;8.38;2.60;;;;;;;9.81;90.65;102137.75;6070613;23;20023;-85
2023/05/02 02:10:58;;;;;;;7.05;2.50;;;;;;;9.81;90.48;102134.31;6055723;23;20366;-85
2023/05/02 02:13:31;;;;;;;7.32;2.65;;;;;;;9.80;90.25;102133.56;6070415;23;20083;-85
2023/05/02 02:16:00;;;;;;;9.52;3.10;;;;;;;9.83;90.22;102132.03;6069640;23;20027;-85
2023/05/02 02:18:29;;;;;;;9.50;2.80;;;;;;;9.82;89.81;102136.59;6069981;23;20083;-85
2023/05/02 02:20:58;;;;;;;3.85;2.25;;;;;;;9.82;89.85;102141.16;6071003;23;20015;-85
2023/05/02 02:23:27;;;;;;;9.05;2.50;;;;;;;9.77;89.36;102147.66;6069508;23;20015;-84
2023/05/02 02:25:55;;;;;;;6.50;2.40;;;;;;;9.76;89.55;102159.44;6071585;23;20077;-85
2023/05/02 02:28:22;;;;;;;5.80;2.35;;;;;;;9.73;89.34;102154.94;6069794;23;20056;-83
2023/05/02 02:30:49;;;;;;;4.13;2.15;;;;;;;9.75;88.92;102168.59;6071585;23;20016;-85
2023/05/02 02:33:16;;;;;;;7.60;2.15;;;;;;;9.72;88.38;102168.63;6069548;23;20432;-85
2023/05/02 02:35:51;;;;;;;6.03;2.17;;;;;;;9.68;88.06;102163.34;6071626;23;20056;-85
2023/05/02 02:38:59;;;;;;;8.55;1.90;;;;;;;9.68;88.16;102177.41;6045468;23;20465;-85
2023/05/02 02:41:38;;;;;;;7.60;2.00;;;;;;;9.67;87.72;102178.53;6046498;23;20027;-84
2023/05/02 02:44:21;;;;;;;6.60;1.95;;;;;;;9.67;87.42;102177.78;6077699;23;20015;-85
2023/05/02 02:47:04;;;;;;;4.65;1.85;;;;;;;9.66;87.25;102181.59;6070298;23;20079;-84
2023/05/02 02:49:31;;;;;;;7.15;2.05;;;;;;;9.65;87.36;102182.75;6070192;23;20107;-84
2023/05/02 02:52:23;;;;;;;5.97;1.88;;;;;;;9.66;86.73;102189.59;6045543;23;20023;-85
2023/05/02 02:55:02;;;;;;;4.35;2.00;;;;;;;9.62;86.86;102181.66;6071284;23;20023;-84
2023/05/02 02:57:39;;;;;;;6.38;1.73;;;;;;;9.60;86.77;102183.94;6069954;23;20019;-84
2023/05/02 03:00:12;;;;;;;4.28;1.77;;;;;;;9.60;86.63;102186.59;6068891;23;20027;-84
2023/05/02 03:02:41;;;;;;;6.82;1.88;;;;;;;9.57;86.21;102190.09;6071529;23;20498;-84
2023/05/02 03:05:09;;;;;;;4.60;1.42;;;;;;;9.56;86.27;102188.56;6069025;23;20537;-84
2023/05/02 03:07:36;;;;;;;3.15;1.50;;;;;;;9.54;86.12;102200.75;6071063;23;20023;-85
2023/05/02 03:10:04;;;;;;;3.20;1.35;;;;;;;9.51;85.84;102196.97;6070716;23;20019;-84
2023/05/02 03:12:33;;;;;;;4.15;1.70;;;;;;;9.51;85.73;102201.53;6046300;23;20046;-84
2023/05/02 03:15:29;;;;;;;3.70;1.40;;;;;;;9.50;85.69;102208.75;6079502;23;20015;-84
2023/05/02 03:17:56;;;;;;;4.20;1.40;;;;;;;9.48;85.53;102207.66;6069697;23;20098;-85
2023/05/02 03:20:23;;;;;;;5.35;1.38;;;;;;;9.48;85.30;102215.63;6069707;23;20026;-84
2023/05/02 03:22:49;;;;;;;4.97;1.83;;;;;;;9.47;85.46;102212.22;6068985;23;20019;-84
2023/05/02 03:25:16;;;;;;;6.20;1.60;;;;;;;9.45;85.35;102219.06;6069910;23;20371;-85
2023/05/02 03:27:46;;;;;;;5.00;1.75;;;;;;;9.44;85.96;102217.56;6069480;23;20069;-85
2023/05/02 03:30:13;;;;;;;9.15;1.70;;;;;;;9.43;85.57;102216.81;6068974;23;20034;-85
2023/05/02 03:32:39;;;;;;;7.82;1.60;;;;;;;9.42;85.60;102223.28;6069639;23;20023;-85
2023/05/02 03:35:06;;;;;;;7.45;1.67;;;;;;;9.41;85.49;102224.41;6068614;23;20098;-85
2023/05/02 03:37:38;;;;;;;4.72;2.05;;;;;;;9.39;85.39;102232.03;6046284;23;20502;-84
2023/05/02 03:40:05;;;;;;;5.05;1.40;;;;;;;9.38;85.49;102230.53;6068700;23;20163;-84
2023/05/02 03:42:38;;;;;;;4.78;2.15;;;;;;;9.35;85.18;102231.31;6069650;23;20485;-84
2023/05/02 03:45:10;;;;;;;2.15;1.45;;;;;;;9.32;85.72;102237.41;6068963;23;20015;-84
2023/05/02 03:47:36;;;;;;;8.65;1.52;;;;;;;9.30;86.08;102245.03;6078484;23;20044;-85
2023/05/02 03:50:03;;;;;;;6.95;1.92;;;;;;;9.27;85.30;102253.78;6069290;23;20079;-85
2023/05/02 03:52:32;;;;;;;6.05;1.52;;;;;;;9.25;85.42;102248.09;6045374;23;20071;-85
2023/05/02 03:55:00;;;;;;;11.85;2.53;;;;;;;9.24;85.42;102247.34;6068661;23;20029;-84
2023/05/02 03:57:31;;;;;;;7.07;1.52;;;;;;;9.22;85.57;102246.22;6045717;23;20020;-84
2023/05/02 03:59:59;;;;;;;7.60;2.17;;;;;;;9.21;85.18;102253.44;6072421;23;20030;-84
2023/05/02 04:02:37;;;;;;;10.70;1.80;;;;;;;9.21;84.99;102258.00;6100203;23;20026;-84
2023/05/02 04:05:07;;;;;;;4.22;1.65;;;;;;;9.18;85.22;102254.25;6049629;23;20496;-85
2023/05/02 04:07:35;;;;;;;12.90;1.92;;;;;;;9.19;85.16;102262.97;6074272;23;20441;-85
2023/05/02 04:10:05;;;;;;;4.38;2.15;;;;;;;9.18;85.05;102266.78;6073488;23;20030;-84
2023/05/02 04:12:36;;;;;;;4.53;1.92;;;;;;;9.16;85.17;102263.75;6074030;23;20019;-85
2023/05/02 04:15:02;;;;;;;5.70;2.10;;;;;;;9.18;84.79;102267.53;6073796;23;20022;-84
2023/05/02 04:17:29;;;;;;;4.15;1.75;;;;;;;9.17;84.62;102274.00;6074487;23;20023;-85
2023/05/02 04:19:56;;;;;;;9.98;2.20;;;;;;;9.15;84.40;102278.19;6081678;23;20079;-85
2023/05/02 04:22:25;;;;;;;9.38;2.00;;;;;;;9.14;84.38;102268.72;6100664;23;20457;-84
2023/05/02 04:24:56;;;;;;;5.93;2.00;;;;;;;9.13;84.26;102275.94;6050662;23;20406;-85
2023/05/02 04:27:24;;;;;;;3.83;1.85;;;;;;;9.12;83.99;102289.59;6050258;23;20023;-85
2023/05/02 04:29:52;;;;;;;4.10;1.80;;;;;;;9.12;83.37;102292.25;6100043;23;20030;-84
2023/05/02 04:32:19;;;;;;;5.10;1.85;;;;;;;9.12;83.35;102289.59;6073690;23;20532;-85
2023/05/02 04:34:46;;;;;;;4.18;1.75;;;;;;;9.09;83.22;102296.44;6097530;23;20023;-84
2023/05/02 04:37:14;;;;;;;7.30;2.15;;;;;;;9.06;83.38;102299.13;6099363;23;20022;-84
2023/05/02 04:39:43;;;;;;;3.63;1.70;;;;;;;9.05;83.54;102300.28;6073639;23;20019;-84
2023/05/02 04:42:15;;;;;;;5.85;1.88;;;;;;;9.02;83.79;102323.81;6073528;23;20533;-86
2023/05/02 04:44:53;;;;;;;5.05;1.85;;;;;;;8.94;83.74;102319.69;6073341;23;20094;-85
2023/05/02 04:47:20;;;;;;;6.35;1.95;;;;;;;8.89;84.47;102325.41;6073890;23;20485;-85
2023/05/02 04:49:47;;;;;;;10.13;2.50;;;;;;;8.88;84.30;102336.41;6099442;23;20019;-86
2023/05/02 04:52:13;;;;;;;4.82;1.77;;;;;;;8.85;84.49;102332.63;6110663;23;20015;-84
2023/05/02 04:54:40;;;;;;;7.35;2.20;;;;;;;8.83;83.90;102340.25;6074520;23;20094;-85
2023/05/02 04:57:08;;;;;;;6.85;2.38;;;;;;;8.80;83.27;102345.56;6049460;23;20086;-84
2023/05/02 04:59:38;;;;;;;9.20;2.38;;;;;;;8.82;83.05;102353.91;6050813;23;20015;-84
2023/05/02 05:02:06;;;;;;;3.58;1.88;;;;;;;8.82;82.86;102351.25;6020773;23;20474;-84
2023/05/02 05:04:34;;;;;;;5.35;2.38;;;;;;;8.84;82.71;102341.75;6044631;23;20019;-84
2023/05/02 05:07:01;;;;;;;11.40;2.55;;;;;;;8.83;82.16;102355.41;6045131;23;20075;-84
2023/05/02 05:09:28;;;;;;;13.07;2.60;;;;;;;8.83;81.96;102358.06;6046926;23;20054;-84
2023/05/02 05:11:55;;;;;;;8.70;2.22;;;;;;;8.84;81.53;102368.31;6071220;23;20024;-84
2023/05/02 05:14:23;;;;;;;6.70;2.30;;;;;;;8.82;80.57;102370.59;6072264;23;20024;-84
2023/05/02 05:16:52;;;;;;;5.95;2.53;;;;;;;8.86;80.44;102381.19;6045846;23;20477;-84
2023/05/02 05:19:21;;;;;;;7.43;2.55;;;;;;;8.87;80.03;102369.44;6069751;23;20027;-84
2023/05/02 05:21:49;;;;;;;6.88;2.05;;;;;;;8.87;80.02;102375.50;6046210;23;20023;-85
2023/05/02 05:24:17;;;;;;;4.53;2.00;;;;;;;8.88;80.22;102379.66;6032180;23;20023;-84
2023/05/02 05:26:44;;;;;;;8.18;2.22;;;;;;;8.93;80.10;102384.56;6047247;23;20019;-85
2023/05/02 05:29:11;;;;;;;10.90;2.40;;;;;;;8.90;79.80;102385.34;6045740;23;20027;-85
2023/05/02 05:31:40;;;;;;;8.00;2.65;;;;;;;8.89;79.45;102380.44;6046249;23;20027;-85
2023/05/02 05:34:11;;;;;;;14.38;2.58;;;;;;;8.86;79.38;102392.56;6021422;23;20015;-85
2023/05/02 05:36:41;;;;;;;11.98;2.75;;;;;;;8.81;79.01;102392.97;6046058;23;20057;-85
2023/05/02 05:39:08;;;;;;;11.65;2.90;;;;;;;8.80;79.20;102394.13;6045010;23;20370;-85
2023/05/02 05:41:38;;;;;;;12.20;2.85;;;;;;;8.80;79.08;102401.34;6046003;23;20533;-86
2023/05/02 05:44:08;;;;;;;7.30;2.90;;;;;;;8.84;79.22;102413.44;6022584;23;20151;-85
2023/05/02 05:46:34;;;;;;;9.55;2.88;;;;;;;8.80;77.86;102412.72;6046846;23;20026;-84
2023/05/02 05:49:02;;;;;;;8.40;2.72;;;;;;;8.79;77.85;102423.75;6023022;23;20023;-84
2023/05/02 05:51:30;;;;;;;6.97;2.45;;;;;;;8.81;77.12;102426.75;6045987;23;20038;-84
2023/05/02 05:53:58;;;;;;;6.03;2.40;;;;;;;8.81;77.06;102427.50;6045354;23;20015;-85
2023/05/02 05:56:25;;;;;;;9.77;2.42;;;;;;;8.85;76.73;102438.88;6053669;23;20022;-84
2023/05/02 05:59:05;;;;;;;8.15;2.53;;;;;;;8.87;76.33;102436.59;6045668;23;20023;-84
2023/05/02 06:01:32;;;;;;;6.10;2.28;;;;;;;8.87;75.90;102441.91;6068540;23;20106;-84
2023/05/02 06:04:01;;;;;;;4.75;2.40;;;;;;;8.92;76.03;102443.41;6075213;23;20428;-84
2023/05/02 06:06:28;;;;;;;10.23;2.08;;;;;;;8.90;75.17;102451.00;6075343;23;20019;-82
2023/05/02 06:08:55;;;;;;;11.85;2.45;;;;;;;8.89;74.44;102455.53;6075698;23;20026;-84
2023/05/02 06:11:25;;;;;;;5.80;2.10;;;;;;;8.97;75.01;102453.63;6075678;23;20047;-85
2023/05/02 06:13:52;;;;;;;7.60;2.17;;;;;;;9.06;74.50;102450.56;6101718;23;20015;-84
2023/05/02 06:16:19;;;;;;;8.32;2.47;;;;;;;9.14;74.29;102460.00;6074839;23;20058;-82
2023/05/02 06:18:46;;;;;;;6.15;2.00;;;;;;;9.20;74.73;102469.81;6074759;23;20082;-82
2023/05/02 06:21:12;;;;;;;10.48;2.47;;;;;;;9.27;74.41;102467.13;6100924;23;20516;-78
2023/05/02 06:23:39;;;;;;;6.15;1.98;;;;;;;9.30;73.25;102473.56;6101413;23;20038;-80
2023/05/02 06:26:06;;;;;;;6.80;2.35;;;;;;;9.39;73.55;102475.81;6075321;23;20030;-81
2023/05/02 06:28:32;;;;;;;10.93;2.28;;;;;;;9.51;73.12;102478.78;6102028;23;20050;-80
2023/05/02 06:31:01;;;;;;;6.47;2.45;;;;;;;9.61;73.43;102485.91;6100229;23;20019;-80
2023/05/02 06:33:28;;;;;;;8.88;2.58;;;;;;;9.69;72.41;102487.38;6101453;23;20046;-81
2023/05/02 06:35:56;;;;;;;4.28;1.75;;;;;;;9.73;71.91;102489.25;6100958;23;20090;-79
2023/05/02 06:38:24;;;;;;;7.07;2.30;;;;;;;9.75;71.45;102493.03;6101375;23;20019;-80
2023/05/02 06:40:51;;;;;;;6.15;2.33;;;;;;;9.77;70.88;102498.72;6075504;23;20089;-80
2023/05/02 06:43:18;;;;;;;10.40;2.30;;;;;;;9.83;70.95;102499.81;6100697;23;20015;-84
2023/05/02 06:45:44;;;;;;;5.25;2.20;;;;;;;9.87;70.12;102511.19;6098465;23;20445;-82
2023/05/02 06:48:11;;;;;;;3.95;2.20;;;;;;;9.86;70.50;102515.00;6100498;23;20023;-81
2023/05/02 06:50:37;;;;;;;6.00;1.95;;;;;;;9.84;69.54;102516.53;6100798;23;20019;-82
2023/05/02 06:53:04;;;;;;;6.03;1.65;;;;;;;9.78;69.84;102518.84;6100794;23;20015;-82
2023/05/02 06:55:31;;;;;;;6.07;1.75;;;;;;;9.72;69.86;102520.41;6100936;23;20394;-82
2023/05/02 06:57:58;;;;;;;7.03;2.40;;;;;;;9.70;70.26;102531.44;6100979;23;20023;-81
2023/05/02 07:00:25;;;;;;;5.50;2.13;;;;;;;9.70;70.72;102538.66;6099861;23;20019;-80
2023/05/02 07:02:51;;;;;;;7.22;2.30;;;;;;;9.68;70.33;102540.94;6101772;23;20015;-82
2023/05/02 07:05:18;;;;;;;10.90;2.15;;;;;;;9.68;70.24;102543.59;6101251;23;20456;-81
2023/05/02 07:07:44;;;;;;;6.45;2.35;;;;;;;9.64;70.58;102551.59;6075469;23;20023;-82
2023/05/02 07:10:11;;;;;;;5.05;2.28;;;;;;;9.68;70.65;102551.59;6101325;23;20018;-81
2023/05/02 07:12:38;;;;;;;9.85;2.13;;;;;;;9.69;70.52;102553.09;6075387;23;20023;-82
2023/05/02 07:15:06;;;;;;;9.85;2.30;;;;;;;9.72;71.09;102562.22;6100222;23;20094;-82
2023/05/02 07:17:32;;;;;;;10.00;2.78;;;;;;;9.77;70.84;102557.22;6101357;23;20099;-81
2023/05/02 07:19:59;;;;;;;8.23;2.60;;;;;;;9.85;70.93;102561.38;6074633;23;20023;-85
2023/05/02 07:22:26;;;;;;;10.40;3.58;;;;;;;9.96;70.99;102563.97;6101013;23;20475;-80
2023/05/02 07:24:57;;;;;;;8.80;2.40;;;;;;;9.97;70.26;102571.56;6075250;23;20442;-84
2023/05/02 07:27:24;;;;;;;7.45;2.63;;;;;;;9.84;70.12;102575.81;6101067;23;20029;-84
2023/05/02 07:29:51;;;;;;;5.88;2.53;;;;;;;9.86;69.55;102586.06;6100362;23;20015;-79
2023/05/02 07:32:20;;;;;;;5.20;2.15;;;;;;;9.87;69.25;102584.94;6101006;23;20015;-80
2023/05/02 07:34:47;;;;;;;6.82;2.60;;;;;;;9.89;68.77;102579.97;6110117;23;20682;-84
2023/05/02 07:37:14;;;;;;;7.00;2.25;;;;;;;9.90;69.02;102584.91;6100862;23;20019;-85
2023/05/02 07:39:40;;;;;;;7.15;2.47;;;;;;;9.91;68.76;102578.44;6101316;23;20019;-86
2023/05/02 07:42:06;;;;;;;8.88;2.40;;;;;;;10.00;68.07;102584.06;6100675;23;20421;-81
2023/05/02 07:44:34;;;;;;;7.45;2.22;;;;;;;10.07;68.32;102595.81;6100214;23;20446;-82
2023/05/02 07:47:01;;;;;;;7.07;2.00;;;;;;;10.12;68.22;102590.81;6100622;23;20022;-83
2023/05/02 07:49:28;;;;;;;5.88;2.20;;;;;;;10.21;68.11;102593.06;6101061;23;20075;-90
2023/05/02 07:51:57;;;;;;;4.65;2.53;;;;;;;10.34;67.79;102597.56;6077454;23;20015;-84
2023/05/02 07:54:27;;;;;;;5.97;2.40;;;;;;;10.40;67.59;102603.19;6101358;23;20066;-85
2023/05/02 07:56:56;;;;;;;6.22;2.20;;;;;;;10.46;68.07;102598.19;6100762;23;20365;-83
2023/05/02 07:59:22;;;;;;;7.97;2.38;;;;;;;10.54;66.20;102599.66;6100591;23;20442;-81
2023/05/02 08:01:49;;;;;;;6.60;2.55;;;;;;;10.67;66.69;102611.34;6100001;23;20022;-80
2023/05/02 08:04:15;;;;;;;4.93;1.85;;;;;;;10.78;65.56;102613.91;6074593;23;20499;-80
2023/05/02 08:06:43;;;;;;;13.02;2.88;;;;;;;10.75;65.27;102617.38;6100832;23;20023;-82
2023/05/02 08:09:10;;;;;;;4.10;2.13;;;;;;;10.78;64.63;102609.34;6100582;23;20082;-81
2023/05/02 08:11:36;;;;;;;5.15;1.95;;;;;;;10.75;65.15;102617.38;6100148;23;20019;-80
2023/05/02 08:14:03;;;;;;;11.82;2.53;;;;;;;10.69;64.94;102612.47;6100253;23;20441;-80
2023/05/02 08:16:30;;;;;;;8.93;1.90;;;;;;;10.68;64.20;102626.19;6100478;23;20430;-80
2023/05/02 08:18:56;;;;;;;7.78;2.30;;;;;;;10.60;64.46;102625.47;6100248;23;20023;-80
2023/05/02 08:21:23;;;;;;;4.60;1.98;;;;;;;10.65;64.33;102632.28;6100661;23;20019;-81
2023/05/02 08:23:49;;;;;;;4.13;1.80;;;;;;;10.66;63.10;102631.91;6100582;23;20021;-79
2023/05/02 08:26:17;;;;;;;6.13;2.03;;;;;;;10.66;63.72;102633.81;6073925;23;20606;-87
2023/05/02 08:28:44;;;;;;;5.72;1.83;;;;;;;10.83;63.48;102638.19;6100472;23;20454;-82
2023/05/02 08:31:10;;;;;;;3.17;1.98;;;;;;;10.98;64.13;102630.84;6074555;23;20026;-80
2023/05/02 08:33:37;;;;;;;4.55;1.92;;;;;;;11.03;62.09;102644.47;6100445;23;20046;-79
2023/05/02 08:36:11;;;;;;;5.20;1.85;;;;;;;11.08;61.59;102643.31;6099937;23;20023;-80
2023/05/02 08:38:37;;;;;;;6.85;1.80;;;;;;;11.20;60.27;102652.69;6100579;23;20019;-80
2023/05/02 08:41:11;;;;;;;5.15;1.70;;;;;;;11.28;60.42;102646.13;6099953;23;20042;-80
2023/05/02 08:43:39;;;;;;;2.58;1.50;;;;;;;11.32;59.37;102654.84;6102313;23;20014;-81
2023/05/02 08:46:09;;;;;;;3.72;1.42;;;;;;;11.33;58.96;102651.03;6075201;23;20063;-81
2023/05/02 08:48:36;;;;;;;4.88;1.63;;;;;;;11.49;58.32;102656.56;6100909;23;20026;-81
2023/05/02 08:51:03;;;;;;;4.63;1.63;;;;;;;11.62;57.32;102662.84;6099773;23;20406;-81
2023/05/02 08:53:33;;;;;;;4.65;1.95;;;;;;;11.70;57.53;102661.63;6101797;23;20074;-81
2023/05/02 08:56:00;;;;;;;3.95;1.38;;;;;;;11.78;56.40;102666.91;6100730;23;20066;-81
2023/05/02 08:58:27;;;;;;;5.60;1.85;;;;;;;11.92;56.26;102674.72;6101880;23;20026;-81
2023/05/02 09:00:55;;;;;;;2.60;1.58;;;;;;;11.96;55.58;102673.53;6070757;23;20027;-81
2023/05/02 09:03:25;;;;;;;3.83;1.90;;;;;;;12.15;56.19;102672.13;6072536;23;20023;-81
2023/05/02 09:05:54;;;;;;;3.85;1.60;;;;;;;12.34;54.58;102676.03;6072874;23;20428;-82
2023/05/02 09:08:24;;;;;;;2.38;1.80;;;;;;;12.46;53.77;102670.13;6072715;23;20043;-81
2023/05/02 09:10:50;;;;;;;3.40;1.60;;;;;;;12.64;52.69;102680.53;6070844;23;20015;-81
2023/05/02 09:13:28;;;;;;;5.10;1.90;;;;;;;12.87;53.07;102685.84;6072967;23;20022;-82
2023/05/02 09:16:03;;;;;;;1.77;1.45;;;;;;;12.65;51.58;102680.13;6072726;23;20023;-80
2023/05/02 09:18:34;;;;;;;4.82;1.75;;;;;;;12.47;51.29;102687.66;6072794;23;20026;-81
2023/05/02 09:21:05;;;;;;;2.28;1.30;;;;;;;12.42;50.67;102676.66;6072605;23;20023;-81
2023/05/02 09:23:39;;;;;;;4.97;1.87;;;;;;;12.40;52.16;102682.41;6072782;23;20469;-80
2023/05/02 09:26:31;;;;;;;5.60;1.92;;;;;;;12.47;52.37;102681.56;6071428;23;20449;-81
2023/05/02 09:29:00;;;;;;;3.65;1.48;;;;;;;12.53;50.20;102698.63;6065106;23;20455;-81
2023/05/02 09:31:33;;;;;;;3.10;1.52;;;;;;;12.62;49.22;102690.88;6072757;23;20019;-80
2023/05/02 09:34:19;;;;;;;4.05;1.70;;;;;;;12.80;49.37;102691.31;6071734;23;20020;-81
2023/05/02 09:36:50;;;;;;;2.78;1.40;;;;;;;12.88;48.26;102694.63;6072378;23;20071;-81
2023/05/02 09:39:21;;;;;;;2.40;1.27;;;;;;;13.03;48.47;102696.66;6071605;23;20079;-81
2023/05/02 09:41:51;;;;;;;4.85;1.67;;;;;;;13.13;47.67;102697.66;6072621;23;20091;-81
2023/05/02 09:44:20;;;;;;;3.10;1.50;;;;;;;13.35;48.57;102700.69;6070772;23;20026;-81
2023/05/02 09:46:48;;;;;;;7.53;1.50;;;;;;;13.45;46.00;102707.03;6073081;23;20091;-81
2023/05/02 09:49:18;;;;;;;2.03;1.60;;;;;;;13.52;45.23;102706.88;6071991;23;20015;-82
2023/05/02 09:51:46;;;;;;;4.97;1.70;;;;;;;13.60;45.55;102714.34;6072184;23;20103;-84
2023/05/02 09:54:14;;;;;;;4.72;1.55;;;;;;;13.84;45.37;102715.03;6071766;23;20442;-86
2023/05/02 09:56:56;;;;;;;8.27;1.85;;;;;;;14.17;46.07;102723.88;6071767;23;20027;-78
2023/05/02 09:59:23;;;;;;;6.05;2.15;;;;;;;13.77;44.27;102717.09;6072354;23;20017;-79
2023/05/02 10:02:00;;;;;;;4.32;1.52;;;;;;;13.98;44.94;102712.06;6070448;23;20028;-86
2023/05/02 10:04:29;;;;;;;2.25;1.90;;;;;;;14.47;43.55;102708.69;6072541;23;20021;-80
2023/05/02 10:06:56;;;;;;;8.38;2.03;;;;;;;14.76;41.80;102701.50;6072464;23;20591;-84
2023/05/02 10:09:24;;;;;;;4.85;2.10;;;;;;;14.89;43.11;102704.97;6072415;23;20046;-84
2023/05/02 10:11:53;;;;;;;3.25;2.05;;;;;;;14.61;43.68;102716.41;6072422;23;20804;-80
2023/05/02 10:14:22;;;;;;;4.32;1.95;;;;;;;14.17;42.56;102712.41;6071756;23;20008;-83
2023/05/02 10:17:00;;;;;;;3.53;1.90;;;;;;;13.83;44.43;102718.13;6073916;23;20476;-83
2023/05/02 10:19:32;;;;;;;3.75;1.65;;;;;;;13.78;44.79;102727.38;6080578;23;20019;-83
2023/05/02 10:21:59;;;;;;;6.03;2.10;;;;;;;14.22;43.30;102733.34;6072229;23;20446;-84
2023/05/02 10:24:29;;;;;;;4.07;2.10;;;;;;;14.81;42.94;102730.44;6070963;23;20029;-85
2023/05/02 10:26:56;;;;;;;2.97;1.75;;;;;;;15.15;42.17;102743.41;6071036;23;20102;-84
2023/05/02 10:29:22;;;;;;;8.23;2.20;;;;;;;15.30;41.44;102743.78;6072354;23;20039;-81
2023/05/02 10:31:49;;;;;;;5.10;2.30;;;;;;;15.30;42.49;102741.09;6072287;23;20027;-84
2023/05/02 10:34:17;;;;;;;7.32;2.08;;;;;;;15.01;41.81;102736.47;6045641;23;20031;-84
2023/05/02 10:36:44;;;;;;;3.50;1.70;;;;;;;14.71;42.10;102747.56;6071076;23;20425;-83
2023/05/02 10:39:11;;;;;;;7.18;2.10;;;;;;;14.28;41.38;102745.84;6071018;23;20047;-83
2023/05/02 10:41:40;;;;;;;6.65;2.20;;;;;;;14.25;42.11;102738.63;6072249;23;20031;-81
2023/05/02 10:44:07;;;;;;;3.33;1.73;;;;;;;14.66;41.99;102754.19;6071965;23;20026;-81
2023/05/02 10:46:41;;;;;;;4.85;2.20;;;;;;;14.67;41.39;102742.28;6072202;23;20031;-83
2023/05/02 10:49:10;;;;;;;11.52;2.50;;;;;;;14.44;41.93;102741.69;6070601;23;20091;-83
2023/05/02 10:51:40;;;;;;;10.30;2.30;;;;;;;14.46;42.44;102750.81;6077973;23;20020;-83
2023/05/02 10:54:15;;;;;;;4.32;2.20;;;;;;;14.69;41.74;102755.28;6071705;23;20015;-84
2023/05/02 10:57:11;;;;;;;4.20;2.00;;;;;;;15.08;41.45;102742.81;6070780;23;20028;-83
2023/05/02 10:59:40;;;;;;;6.90;2.20;;;;;;;15.45;40.84;102747.59;6057890;23;20039;-83
2023/05/02 11:02:26;;;;;;;2.80;1.75;;;;;;;15.38;39.48;102749.72;6093109;23;20023;-84
2023/05/02 11:05:21;;;;;;;4.15;2.10;;;;;;;15.30;41.17;102755.25;6099036;23;20555;-83
2023/05/02 11:07:48;;;;;;;3.65;2.20;;;;;;;15.72;39.43;102765.28;6095603;23;20098;-83
2023/05/02 11:10:14;;;;;;;3.25;2.10;;;;;;;15.63;40.19;102761.28;6100366;23;20055;-84
2023/05/02 11:12:48;;;;;;;5.28;2.58;;;;;;;15.58;40.96;102759.16;6101310;23;20071;-83
2023/05/02 11:15:40;;;;;;;3.92;2.05;;;;;;;15.64;40.19;102754.75;6075331;23;20021;-84
2023/05/02 11:18:08;;;;;;;3.20;2.17;;;;;;;15.70;39.03;102752.28;6100710;23;20464;-83
2023/05/02 11:20:38;;;;;;;4.10;2.17;;;;;;;15.92;38.84;102763.19;6100548;23;20019;-83
2023/05/02 11:23:14;;;;;;;5.57;2.08;;;;;;;15.70;38.89;102768.41;6101154;23;20067;-83
2023/05/02 11:25:42;;;;;;;5.28;2.30;;;;;;;15.61;38.87;102754.84;6106035;23;20079;-83
2023/05/02 11:28:36;;;;;;;7.68;2.60;;;;;;;15.47;40.18;102763.28;6101003;23;20053;-83
2023/05/02 11:31:08;;;;;;;3.20;2.53;;;;;;;15.70;39.07;102759.59;6101055;23;20007;-82
2023/05/02 11:33:35;;;;;;;;;;;;;;;15.77;41.40;102772.81;6102231;23;20015;-89
2023/05/02 11:36:01;;;;;;;8.00;2.75;;;;;;;15.70;39.66;102779.16;6100508;23;20332;-82
2023/05/02 11:38:36;;;;;;;7.32;3.03;;;;;;;15.93;38.82;102772.75;6099307;23;20018;-82